createdAt,value
2019-04-02T00:00:36.793Z,7.88
2019-04-02T00:01:36.754Z,7.85
2019-04-02T00:02:36.741Z,7.82
2019-04-02T00:03:37.908Z,7.70
2019-04-02T00:04:36.747Z,7.70
2019-04-02T00:05:36.737Z,7.76
2019-04-02T00:06:36.698Z,7.79
2019-04-02T00:07:36.685Z,7.74
2019-04-02T00:08:36.675Z,7.66
2019-04-02T00:09:36.666Z,7.84
2019-04-02T00:10:36.734Z,7.69
2019-04-02T00:11:36.643Z,7.67
2019-04-02T00:12:36.631Z,7.76
2019-04-02T00:13:36.623Z,7.66
2019-04-02T00:14:36.610Z,7.67
2019-04-02T00:15:36.622Z,7.62
2019-04-02T00:16:36.588Z,7.57
2019-04-02T00:17:36.575Z,7.63
2019-04-02T00:18:37.278Z,7.52
2019-04-02T00:19:36.556Z,7.55
2019-04-02T00:20:36.566Z,7.51
2019-04-02T00:21:36.532Z,7.57
2019-04-02T00:22:36.525Z,7.54
2019-04-02T00:23:36.512Z,7.51
2019-04-02T00:24:36.501Z,7.55
2019-04-02T00:25:36.508Z,7.63
2019-04-02T00:26:36.475Z,7.60
2019-04-02T00:27:36.493Z,7.66
2019-04-02T00:28:36.456Z,7.58
2019-04-02T00:29:36.442Z,7.60
2019-04-02T00:30:36.440Z,7.60
2019-04-02T00:31:36.444Z,7.55
2019-04-02T00:32:36.409Z,7.55
2019-04-02T00:33:38.112Z,7.54
2019-04-02T00:34:36.700Z,7.51
2019-04-02T00:35:36.378Z,7.55
2019-04-02T00:36:36.391Z,7.54
2019-04-02T00:37:37.228Z,7.57
2019-04-02T00:38:36.347Z,7.50
2019-04-02T00:39:36.333Z,7.60
2019-04-02T00:40:36.335Z,7.55
2019-04-02T00:41:36.337Z,7.51
2019-04-02T00:42:36.299Z,7.55
2019-04-02T00:43:36.319Z,7.52
2019-04-02T00:44:36.275Z,7.55
2019-04-02T00:45:36.268Z,7.50
2019-04-02T00:46:36.282Z,7.50
2019-04-02T00:47:36.242Z,7.52
2019-04-02T00:48:36.231Z,7.54
2019-04-02T00:49:36.224Z,7.42
2019-04-02T00:50:36.210Z,7.44
2019-04-02T00:51:36.221Z,7.50
2019-04-02T00:52:36.723Z,7.45
2019-04-02T00:53:36.181Z,7.45
2019-04-02T00:54:36.166Z,7.48
2019-04-02T00:55:36.159Z,7.48
2019-04-02T00:56:36.196Z,7.48
2019-04-02T00:57:36.134Z,7.50
2019-04-02T00:58:36.120Z,7.44
2019-04-02T00:59:36.111Z,7.44
2019-04-02T01:00:36.102Z,7.48
2019-04-02T01:01:36.139Z,7.41
2019-04-02T01:02:36.082Z,7.51
2019-04-02T01:03:36.069Z,7.41
2019-04-02T01:04:36.053Z,7.36
2019-04-02T01:05:36.925Z,7.32
2019-04-02T01:06:36.056Z,7.36
2019-04-02T01:07:36.021Z,7.37
2019-04-02T01:08:36.011Z,7.30
2019-04-02T01:09:36.022Z,7.30
2019-04-02T01:10:35.991Z,7.29
2019-04-02T01:11:36.000Z,7.21
2019-04-02T01:12:35.968Z,7.21
2019-04-02T01:13:35.955Z,7.23
2019-04-02T01:14:35.967Z,7.24
2019-04-02T01:15:35.935Z,7.23
2019-04-02T01:16:35.947Z,7.32
2019-04-02T01:17:35.911Z,7.19
2019-04-02T01:18:35.915Z,7.19
2019-04-02T01:19:35.889Z,7.23
2019-04-02T01:20:36.992Z,7.24
2019-04-02T01:21:35.876Z,7.09
2019-04-02T01:22:35.878Z,7.15
2019-04-02T01:23:35.845Z,7.05
2019-04-02T01:24:35.853Z,7.04
2019-04-02T01:25:35.823Z,7.04
2019-04-02T01:26:35.814Z,7.09
2019-04-02T01:27:35.821Z,7.01
2019-04-02T01:28:35.823Z,7.07
2019-04-02T01:29:35.777Z,7.00
2019-04-02T01:30:35.765Z,6.99
2019-04-02T01:31:35.757Z,6.91
2019-04-02T01:32:35.769Z,7.00
2019-04-02T01:33:35.766Z,6.97
2019-04-02T01:34:35.721Z,7.05
2019-04-02T01:35:37.100Z,7.07
2019-04-02T01:36:36.317Z,7.01
2019-04-02T01:37:35.716Z,6.96
2019-04-02T01:38:35.681Z,7.01
2019-04-02T01:39:35.673Z,7.08
2019-04-02T01:40:35.656Z,7.00
2019-04-02T01:41:35.653Z,7.04
2019-04-02T01:42:35.660Z,6.96
2019-04-02T01:43:35.643Z,6.90
2019-04-02T01:44:35.613Z,6.94
2019-04-02T01:45:35.604Z,6.99
2019-04-02T01:46:35.595Z,6.96
2019-04-02T01:47:35.602Z,6.99
2019-04-02T01:48:35.573Z,7.01
2019-04-02T01:49:35.576Z,6.97
2019-04-02T01:50:36.170Z,6.90
2019-04-02T01:51:35.535Z,6.97
2019-04-02T01:52:35.548Z,6.96
2019-04-02T01:53:35.510Z,6.96
2019-04-02T01:54:35.508Z,6.94
2019-04-02T01:55:35.500Z,7.04
2019-04-02T01:56:35.482Z,6.99
2019-04-02T01:57:35.495Z,7.04
2019-04-02T01:58:35.456Z,7.07
2019-04-02T01:59:35.447Z,7.04
2019-04-02T02:00:35.435Z,7.12
2019-04-02T02:01:35.426Z,7.16
2019-04-02T02:02:35.434Z,7.16
2019-04-02T02:03:35.415Z,7.19
2019-04-02T02:04:35.391Z,7.21
2019-04-02T02:05:35.382Z,7.33
2019-04-02T02:06:35.367Z,7.39
2019-04-02T02:07:35.380Z,7.52
2019-04-02T02:08:37.146Z,7.57
2019-04-02T02:09:35.635Z,7.66
2019-04-02T02:10:35.321Z,7.69
2019-04-02T02:11:35.321Z,7.81
2019-04-02T02:12:35.360Z,7.71
2019-04-02T02:13:35.291Z,7.79
2019-04-02T02:14:35.298Z,7.82
2019-04-02T02:15:35.269Z,7.82
2019-04-02T02:16:35.257Z,7.85
2019-04-02T02:17:35.270Z,7.91
2019-04-02T02:18:35.233Z,8.10
2019-04-02T02:19:35.229Z,8.04
2019-04-02T02:20:35.212Z,8.03
2019-04-02T02:21:35.239Z,8.00
2019-04-02T02:22:35.196Z,8.00
2019-04-02T02:23:35.202Z,8.04
2019-04-02T02:24:35.171Z,8.09
2019-04-02T02:25:35.156Z,7.99
2019-04-02T02:26:35.264Z,8.18
2019-04-02T02:27:35.165Z,8.12
2019-04-02T02:28:35.146Z,8.14
2019-04-02T02:29:35.124Z,8.17
2019-04-02T02:30:35.104Z,8.14
2019-04-02T02:31:36.215Z,8.18
2019-04-02T02:32:36.448Z,8.21
2019-04-02T02:33:37.340Z,8.22
2019-04-02T02:34:35.061Z,8.29
2019-04-02T02:35:35.069Z,8.25
2019-04-02T02:36:35.039Z,8.27
2019-04-02T02:37:35.030Z,8.28
2019-04-02T02:38:35.040Z,8.36
2019-04-02T02:39:35.022Z,8.32
2019-04-02T02:40:34.996Z,8.32
2019-04-02T02:41:34.981Z,8.32
2019-04-02T02:42:34.969Z,8.24
2019-04-02T02:43:34.982Z,8.27
2019-04-02T02:44:34.993Z,8.25
2019-04-02T02:45:34.952Z,8.21
2019-04-02T02:46:34.929Z,8.27
2019-04-02T02:47:34.916Z,8.25
2019-04-02T02:48:34.941Z,8.13
2019-04-02T02:49:34.893Z,7.99
2019-04-02T02:50:34.879Z,8.06
2019-04-02T02:51:34.879Z,7.96
2019-04-02T02:52:34.857Z,7.82
2019-04-02T02:53:34.874Z,7.70
2019-04-02T02:54:34.835Z,7.66
2019-04-02T02:55:34.826Z,7.63
2019-04-02T02:56:34.828Z,7.58
2019-04-02T02:57:34.805Z,7.57
2019-04-02T02:58:34.822Z,7.44
2019-04-02T02:59:34.825Z,7.42
2019-04-02T03:00:34.768Z,7.30
2019-04-02T03:01:37.994Z,7.29
2019-04-02T03:02:34.750Z,7.36
2019-04-02T03:03:34.763Z,7.21
2019-04-02T03:04:34.756Z,7.14
2019-04-02T03:05:34.716Z,7.12
2019-04-02T03:06:34.703Z,7.05
2019-04-02T03:07:34.694Z,7.01
2019-04-02T03:08:34.696Z,6.90
2019-04-02T03:09:34.710Z,7.00
2019-04-02T03:10:35.251Z,6.99
2019-04-02T03:11:35.344Z,6.89
2019-04-02T03:12:36.225Z,6.91
2019-04-02T03:13:37.054Z,6.90
2019-04-02T03:14:34.646Z,6.83
2019-04-02T03:15:34.606Z,6.76
2019-04-02T03:16:34.598Z,6.82
2019-04-02T03:17:34.627Z,6.72
2019-04-02T03:18:34.575Z,6.65
2019-04-02T03:19:34.588Z,6.71
2019-04-02T03:20:34.549Z,6.55
2019-04-02T03:21:34.570Z,6.60
2019-04-02T03:22:34.527Z,6.55
2019-04-02T03:23:34.514Z,6.48
2019-04-02T03:24:34.534Z,6.48
2019-04-02T03:25:34.500Z,6.45
2019-04-02T03:26:34.481Z,6.43
2019-04-02T03:27:34.471Z,6.53
2019-04-02T03:28:34.467Z,6.46
2019-04-02T03:29:34.475Z,6.45
2019-04-02T03:30:34.437Z,6.50
2019-04-02T03:31:35.866Z,6.48
2019-04-02T03:32:34.414Z,6.39
2019-04-02T03:33:34.425Z,6.35
2019-04-02T03:34:34.418Z,6.45
2019-04-02T03:35:34.818Z,6.40
2019-04-02T03:36:35.473Z,6.33
2019-04-02T03:37:34.935Z,6.35
2019-04-02T03:38:36.964Z,6.38
2019-04-02T03:39:34.354Z,6.33
2019-04-02T03:40:34.332Z,6.35
2019-04-02T03:41:34.321Z,6.43
2019-04-02T03:42:34.298Z,6.40
2019-04-02T03:43:34.296Z,6.43
2019-04-02T03:44:34.304Z,6.45
2019-04-02T03:45:34.267Z,6.51
2019-04-02T03:46:34.277Z,6.39
2019-04-02T03:47:34.244Z,6.50
2019-04-02T03:48:36.670Z,6.50
2019-04-02T03:49:34.244Z,6.54
2019-04-02T03:50:34.210Z,6.68
2019-04-02T03:51:34.197Z,6.68
2019-04-02T03:52:34.191Z,6.72
2019-04-02T03:53:34.211Z,6.78
2019-04-02T03:54:34.196Z,6.79
2019-04-02T03:55:34.151Z,6.87
2019-04-02T03:56:34.141Z,6.86
2019-04-02T03:57:34.128Z,6.97
2019-04-02T03:58:34.120Z,6.97
2019-04-02T03:59:34.134Z,7.01
2019-04-02T04:00:34.101Z,6.97
2019-04-02T04:01:34.097Z,7.07
2019-04-02T04:02:34.077Z,7.07
2019-04-02T04:03:34.066Z,7.09
2019-04-02T04:04:34.055Z,7.07
2019-04-02T04:05:34.397Z,7.01
2019-04-02T04:06:34.807Z,7.08
2019-04-02T04:07:36.819Z,7.00
2019-04-02T04:08:35.005Z,7.04
2019-04-02T04:09:33.995Z,7.05
2019-04-02T04:10:34.011Z,7.01
2019-04-02T04:11:33.991Z,7.09
2019-04-02T04:12:33.968Z,7.09
2019-04-02T04:13:33.949Z,7.16
2019-04-02T04:14:33.965Z,7.04
2019-04-02T04:15:33.952Z,7.07
2019-04-02T04:16:33.913Z,7.09
2019-04-02T04:17:33.901Z,7.04
2019-04-02T04:18:33.898Z,7.08
2019-04-02T04:19:33.908Z,7.05
2019-04-02T04:20:33.890Z,7.07
2019-04-02T04:21:33.856Z,7.04
2019-04-02T04:22:33.849Z,7.01
2019-04-02T04:23:33.839Z,7.00
2019-04-02T04:24:33.833Z,7.11
2019-04-02T04:25:33.847Z,7.05
2019-04-02T04:26:33.837Z,7.16
2019-04-02T04:27:34.322Z,7.18
2019-04-02T04:28:34.768Z,7.21
2019-04-02T04:29:34.311Z,7.16
2019-04-02T04:30:33.753Z,7.18
2019-04-02T04:31:33.782Z,7.26
2019-04-02T04:32:33.771Z,7.19
2019-04-02T04:33:33.722Z,7.30
2019-04-02T04:34:33.710Z,7.34
2019-04-02T04:35:33.702Z,7.44
2019-04-02T04:36:33.726Z,7.37
2019-04-02T04:37:33.681Z,7.44
2019-04-02T04:38:33.685Z,7.44
2019-04-02T04:39:33.660Z,7.41
2019-04-02T04:40:33.644Z,7.41
2019-04-02T04:41:33.671Z,7.39
2019-04-02T04:42:33.621Z,7.42
2019-04-02T04:43:33.613Z,7.44
2019-04-02T04:44:33.622Z,7.45
2019-04-02T04:45:33.588Z,7.52
2019-04-02T04:46:33.600Z,7.50
2019-04-02T04:47:33.564Z,7.57
2019-04-02T04:48:33.550Z,7.54
2019-04-02T04:49:33.572Z,7.50
2019-04-02T04:50:33.532Z,7.58
2019-04-02T04:51:33.543Z,7.58
2019-04-02T04:52:33.509Z,7.58
2019-04-02T04:53:33.499Z,7.50
2019-04-02T04:54:33.927Z,7.52
2019-04-02T04:55:33.480Z,7.54
2019-04-02T04:56:35.698Z,7.62
2019-04-02T04:57:33.978Z,7.63
2019-04-02T04:58:33.460Z,7.58
2019-04-02T04:59:33.436Z,7.60
2019-04-02T05:00:33.422Z,7.62
2019-04-02T05:01:33.428Z,7.52
2019-04-02T05:02:33.400Z,7.54
2019-04-02T05:03:33.385Z,7.54
2019-04-02T05:04:33.405Z,7.54
2019-04-02T05:05:33.361Z,7.69
2019-04-02T05:06:33.355Z,7.66
2019-04-02T05:07:33.364Z,7.69
2019-04-02T05:08:33.326Z,7.62
2019-04-02T05:09:33.319Z,7.79
2019-04-02T05:10:33.305Z,7.81
2019-04-02T05:11:33.321Z,7.81
2019-04-02T05:12:33.312Z,7.67
2019-04-02T05:13:33.273Z,7.81
2019-04-02T05:14:33.262Z,7.79
2019-04-02T05:15:33.255Z,7.76
2019-04-02T05:16:33.239Z,7.79
2019-04-02T05:17:33.249Z,7.77
2019-04-02T05:18:33.232Z,7.86
2019-04-02T05:19:33.204Z,7.89
2019-04-02T05:20:33.192Z,7.91
2019-04-02T05:21:33.202Z,7.74
2019-04-02T05:22:33.192Z,7.82
2019-04-02T05:23:33.168Z,7.84
2019-04-02T05:24:33.157Z,7.82
2019-04-02T05:25:33.139Z,7.88
2019-04-02T05:26:33.129Z,7.84
2019-04-02T05:27:33.135Z,7.86
2019-04-02T05:28:33.103Z,7.94
2019-04-02T05:29:33.092Z,7.91
2019-04-02T05:30:33.181Z,7.96
2019-04-02T05:31:33.090Z,8.03
2019-04-02T05:32:33.082Z,8.02
2019-04-02T05:33:33.050Z,8.06
2019-04-02T05:34:33.042Z,8.03
2019-04-02T05:35:33.023Z,8.13
2019-04-02T05:36:33.011Z,8.17
2019-04-02T05:37:33.058Z,8.21
2019-04-02T05:38:32.993Z,8.20
2019-04-02T05:39:32.979Z,8.17
2019-04-02T05:40:32.974Z,8.22
2019-04-02T05:41:32.986Z,8.27
2019-04-02T05:42:32.969Z,8.29
2019-04-02T05:43:32.934Z,8.34
2019-04-02T05:44:32.923Z,8.29
2019-04-02T05:45:32.921Z,8.37
2019-04-02T05:46:34.303Z,8.40
2019-04-02T05:47:33.433Z,8.37
2019-04-02T05:48:32.916Z,8.43
2019-04-02T05:49:32.874Z,8.45
2019-04-02T05:50:32.859Z,8.43
2019-04-02T05:51:32.852Z,8.42
2019-04-02T05:52:32.840Z,8.45
2019-04-02T05:53:32.850Z,8.50
2019-04-02T05:54:32.834Z,8.50
2019-04-02T05:55:32.803Z,8.50
2019-04-02T05:56:32.793Z,8.54
2019-04-02T05:57:32.782Z,8.58
2019-04-02T05:58:35.008Z,8.64
2019-04-02T05:59:32.756Z,8.58
2019-04-02T06:00:32.747Z,8.63
2019-04-02T06:01:32.737Z,8.65
2019-04-02T06:02:32.727Z,8.63
2019-04-02T06:03:32.738Z,8.65
2019-04-02T06:04:32.703Z,8.68
2019-04-02T06:05:32.703Z,8.70
2019-04-02T06:06:32.689Z,8.68
2019-04-02T06:07:32.671Z,8.65
2019-04-02T06:08:33.422Z,8.73
2019-04-02T06:09:32.646Z,8.71
2019-04-02T06:10:33.022Z,8.76
2019-04-02T06:11:32.820Z,8.78
2019-04-02T06:12:32.613Z,8.80
2019-04-02T06:13:32.627Z,8.82
2019-04-02T06:14:32.592Z,8.76
2019-04-02T06:15:32.587Z,8.86
2019-04-02T06:16:32.568Z,8.88
2019-04-02T06:17:32.559Z,8.85
2019-04-02T06:18:32.570Z,8.91
2019-04-02T06:19:32.568Z,8.96
2019-04-02T06:20:32.523Z,9.03
2019-04-02T06:21:32.522Z,9.00
2019-04-02T06:22:32.502Z,8.94
2019-04-02T06:23:32.517Z,8.96
2019-04-02T06:24:32.479Z,8.98
2019-04-02T06:25:32.467Z,9.03
2019-04-02T06:26:32.464Z,9.06
2019-04-02T06:27:32.490Z,9.12
2019-04-02T06:28:32.462Z,9.00
2019-04-02T06:29:32.428Z,9.15
2019-04-02T06:30:32.441Z,9.13
2019-04-02T06:31:32.404Z,9.12
2019-04-02T06:32:32.392Z,9.15
2019-04-02T06:33:32.405Z,9.19
2019-04-02T06:34:32.368Z,9.27
2019-04-02T06:35:32.365Z,9.23
2019-04-02T06:36:32.349Z,9.27
2019-04-02T06:37:32.336Z,9.27
2019-04-02T06:38:32.358Z,9.32
2019-04-02T06:39:32.319Z,9.35
2019-04-02T06:40:32.300Z,9.32
2019-04-02T06:41:32.295Z,9.31
2019-04-02T06:42:32.278Z,9.44
2019-04-02T06:43:32.294Z,9.38
2019-04-02T06:44:32.283Z,9.48
2019-04-02T06:45:32.248Z,9.41
2019-04-02T06:46:32.233Z,9.52
2019-04-02T06:47:32.224Z,9.62
2019-04-02T06:48:32.219Z,9.55
2019-04-02T06:49:32.230Z,9.63
2019-04-02T06:50:32.195Z,9.67
2019-04-02T06:51:32.177Z,9.65
2019-04-02T06:52:32.166Z,9.62
2019-04-02T06:53:32.154Z,9.62
2019-04-02T06:54:32.175Z,9.75
2019-04-02T06:55:32.133Z,9.77
2019-04-02T06:56:32.131Z,9.78
2019-04-02T06:57:32.112Z,9.73
2019-04-02T06:58:32.099Z,9.83
2019-04-02T06:59:32.111Z,9.77
2019-04-02T07:00:32.468Z,9.86
2019-04-02T07:01:32.938Z,9.93
2019-04-02T07:02:32.054Z,9.96
2019-04-02T07:03:32.046Z,10.06
2019-04-02T07:04:37.889Z,10.06
2019-04-02T07:05:33.063Z,10.04
2019-04-02T07:06:32.011Z,10.02
2019-04-02T07:07:32.049Z,10.11
2019-04-02T07:08:31.989Z,10.17
2019-04-02T07:09:44.117Z,10.16
2019-04-02T07:10:43.110Z,10.16
2019-04-02T07:11:42.729Z,10.16
2019-04-02T07:12:42.844Z,10.16
2019-04-02T07:13:32.968Z,10.22
2019-04-02T07:14:31.993Z,10.24
2019-04-02T07:15:31.911Z,10.22
2019-04-02T07:16:31.900Z,10.22
2019-04-02T07:17:31.937Z,10.25
2019-04-02T07:18:31.875Z,10.25
2019-04-02T07:19:31.888Z,10.36
2019-04-02T07:20:31.860Z,10.42
2019-04-02T07:21:31.861Z,10.35
2019-04-02T07:22:31.837Z,10.38
2019-04-02T07:23:31.821Z,10.39
2019-04-02T07:24:31.856Z,10.44
2019-04-02T07:25:31.898Z,10.54
2019-04-02T07:26:31.850Z,10.47
2019-04-02T07:27:31.783Z,10.49
2019-04-02T07:28:31.766Z,10.57
2019-04-02T07:29:31.785Z,10.54
2019-04-02T07:30:31.744Z,10.58
2019-04-02T07:33:42.981Z,10.68
2019-04-02T07:34:43.067Z,10.73
2019-04-02T07:35:42.944Z,10.72
2019-04-02T07:36:42.919Z,10.72
2019-04-02T07:37:42.907Z,10.87
2019-04-02T07:38:42.897Z,10.81
2019-04-02T07:39:42.909Z,10.81
2019-04-02T07:40:42.873Z,10.88
2019-04-02T07:41:45.272Z,10.88
2019-04-02T07:42:42.851Z,10.81
2019-04-02T07:43:42.842Z,10.90
2019-04-02T07:44:42.853Z,10.81
2019-04-02T07:45:42.821Z,10.95
2019-04-02T07:46:42.806Z,10.91
2019-04-02T07:47:44.630Z,10.99
2019-04-02T07:48:42.784Z,10.99
2019-04-02T07:49:42.802Z,10.91
2019-04-02T07:50:42.764Z,10.99
2019-04-02T07:51:42.752Z,10.95
2019-04-02T07:52:42.742Z,10.98
2019-04-02T07:53:42.728Z,10.99
2019-04-02T07:54:42.717Z,10.98
2019-04-02T07:55:42.729Z,11.08
2019-04-02T07:56:42.693Z,11.03
2019-04-02T07:57:42.683Z,11.08
2019-04-02T07:58:42.674Z,11.12
2019-04-02T07:59:42.675Z,11.03
2019-04-02T08:00:42.673Z,11.05
2019-04-02T08:01:42.637Z,11.12
2019-04-02T08:02:42.625Z,11.20
2019-04-02T08:03:42.615Z,11.17
2019-04-02T08:04:42.607Z,11.21
2019-04-02T08:05:42.617Z,11.30
2019-04-02T08:06:42.584Z,11.24
2019-04-02T08:07:42.571Z,11.23
2019-04-02T08:08:42.558Z,11.38
2019-04-02T08:09:42.552Z,11.36
2019-04-02T08:10:43.498Z,11.42
2019-04-02T08:11:42.538Z,11.42
2019-04-02T08:12:42.513Z,11.42
2019-04-02T08:13:42.505Z,11.51
2019-04-02T08:14:42.490Z,11.54
2019-04-02T08:15:42.503Z,11.46
2019-04-02T08:16:42.476Z,11.60
2019-04-02T08:17:42.974Z,11.62
2019-04-02T08:18:43.679Z,11.57
2019-04-02T08:19:42.437Z,11.63
2019-04-02T08:20:42.445Z,11.64
2019-04-02T08:21:42.410Z,11.57
2019-04-02T08:22:42.405Z,11.60
2019-04-02T08:23:42.388Z,11.64
2019-04-02T08:24:42.380Z,11.63
2019-04-02T08:25:42.391Z,11.66
2019-04-02T08:26:42.357Z,11.64
2019-04-02T08:27:42.345Z,11.69
2019-04-02T08:28:44.513Z,11.70
2019-04-02T08:29:42.325Z,11.74
2019-04-02T08:30:42.335Z,11.77
2019-04-02T08:31:42.299Z,11.75
2019-04-02T08:32:42.293Z,11.85
2019-04-02T08:33:42.275Z,11.79
2019-04-02T08:34:42.264Z,11.74
2019-04-02T08:35:42.279Z,11.82
2019-04-02T08:36:42.247Z,11.88
2019-04-02T08:37:42.232Z,11.82
2019-04-02T08:38:42.219Z,11.81
2019-04-02T08:39:42.207Z,11.90
2019-04-02T08:40:42.219Z,11.87
2019-04-02T08:41:42.186Z,11.90
2019-04-02T08:42:42.176Z,11.98
2019-04-02T08:43:42.163Z,12.03
2019-04-02T08:44:42.152Z,11.98
2019-04-02T08:45:42.164Z,12.05
2019-04-02T08:46:42.129Z,12.05
2019-04-02T08:47:42.116Z,12.05
2019-04-02T08:48:42.109Z,12.11
2019-04-02T08:49:42.096Z,12.12
2019-04-02T08:50:42.106Z,12.21
2019-04-02T08:51:42.075Z,12.21
2019-04-02T08:52:42.065Z,12.26
2019-04-02T08:53:42.051Z,12.26
2019-04-02T08:54:42.038Z,12.36
2019-04-02T08:55:42.055Z,12.33
2019-04-02T08:56:42.015Z,12.38
2019-04-02T08:57:53.355Z,12.38
2019-04-02T08:58:51.505Z,12.38
2019-04-02T08:59:55.192Z,12.31
2019-04-02T09:00:42.995Z,12.36
2019-04-02T09:01:41.958Z,12.37
2019-04-02T09:02:43.285Z,12.31
2019-04-02T09:03:41.936Z,12.38
2019-04-02T09:04:41.925Z,12.34
2019-04-02T09:05:41.938Z,12.26
2019-04-02T09:06:43.566Z,12.23
2019-04-02T09:07:41.892Z,12.25
2019-04-02T09:08:41.895Z,12.26
2019-04-02T09:09:41.928Z,12.25
2019-04-02T09:10:41.919Z,12.26
2019-04-02T09:11:41.846Z,12.26
2019-04-02T09:12:41.834Z,12.30
2019-04-02T09:13:42.736Z,12.29
2019-04-02T09:14:41.810Z,12.29
2019-04-02T09:15:41.822Z,12.29
2019-04-02T09:16:41.795Z,12.25
2019-04-02T09:17:41.830Z,12.21
2019-04-02T09:18:41.770Z,12.29
2019-04-02T09:19:41.757Z,12.23
2019-04-02T09:20:41.783Z,12.19
2019-04-02T09:21:41.734Z,12.16
2019-04-02T09:22:41.724Z,12.16
2019-04-02T09:23:41.711Z,12.19
2019-04-02T09:24:41.699Z,12.18
2019-04-02T09:25:41.711Z,12.18
2019-04-02T09:26:41.675Z,12.15
2019-04-02T09:27:41.663Z,12.16
2019-04-02T09:28:43.961Z,12.16
2019-04-02T09:29:43.492Z,12.15
2019-04-02T09:30:41.659Z,12.25
2019-04-02T09:31:41.809Z,12.25
2019-04-02T09:32:41.608Z,12.22
2019-04-02T09:33:41.596Z,12.34
2019-04-02T09:34:41.585Z,12.34
2019-04-02T09:35:42.230Z,12.31
2019-04-02T09:36:41.566Z,12.40
2019-04-02T09:37:41.550Z,12.51
2019-04-02T09:38:43.049Z,12.55
2019-04-02T09:39:41.528Z,12.48
2019-04-02T09:40:41.542Z,12.55
2019-04-02T09:41:41.504Z,12.49
2019-04-02T09:42:41.495Z,12.61
2019-04-02T09:43:42.477Z,12.69
2019-04-02T09:44:41.471Z,12.71
2019-04-02T09:45:41.485Z,12.77
2019-04-02T09:46:41.449Z,12.76
2019-04-02T09:47:41.445Z,12.81
2019-04-02T09:48:41.427Z,12.94
2019-04-02T09:49:41.417Z,12.95
2019-04-02T09:50:41.433Z,12.94
2019-04-02T09:51:41.401Z,13.01
2019-04-02T09:52:41.387Z,12.98
2019-04-02T09:53:41.375Z,13.03
2019-04-02T09:54:41.363Z,13.13
2019-04-02T09:55:48.762Z,13.14
2019-04-02T09:56:42.502Z,13.14
2019-04-02T09:57:41.324Z,13.14
2019-04-02T09:58:42.250Z,13.25
2019-04-02T09:59:41.305Z,13.24
2019-04-02T10:00:41.323Z,13.35
2019-04-02T10:01:41.286Z,13.35
2019-04-02T10:02:41.268Z,13.43
2019-04-02T10:03:41.272Z,13.41
2019-04-02T10:04:41.491Z,13.46
2019-04-02T10:05:44.034Z,13.50
2019-04-02T10:06:41.226Z,13.51
2019-04-02T10:07:41.211Z,13.61
2019-04-02T10:08:41.204Z,13.65
2019-04-02T10:09:41.194Z,13.66
2019-04-02T10:10:41.262Z,13.63
2019-04-02T10:11:41.172Z,13.69
2019-04-02T10:12:41.160Z,13.73
2019-04-02T10:13:41.142Z,13.76
2019-04-02T10:14:41.352Z,13.76
2019-04-02T10:15:41.144Z,13.80
2019-04-02T10:16:42.949Z,13.75
2019-04-02T10:17:43.450Z,13.84
2019-04-02T10:18:41.121Z,13.90
2019-04-02T10:19:41.076Z,13.84
2019-04-02T10:20:41.091Z,13.90
2019-04-02T10:21:41.054Z,13.91
2019-04-02T10:22:41.043Z,13.91
2019-04-02T10:23:41.059Z,13.91
2019-04-02T10:24:41.020Z,14.05
2019-04-02T10:25:41.042Z,13.98
2019-04-02T10:26:40.997Z,14.02
2019-04-02T10:27:40.993Z,14.11
2019-04-02T10:28:40.973Z,14.17
2019-04-02T10:29:40.963Z,14.11
2019-04-02T10:30:40.956Z,14.19
2019-04-02T10:31:40.972Z,14.19
2019-04-02T10:32:40.928Z,14.24
2019-04-02T10:33:40.920Z,14.20
2019-04-02T10:34:40.905Z,14.19
2019-04-02T10:35:40.923Z,14.23
2019-04-02T10:36:40.883Z,14.23
2019-04-02T10:37:40.874Z,14.31
2019-04-02T10:38:40.860Z,14.34
2019-04-02T10:39:41.072Z,14.30
2019-04-02T10:40:40.842Z,14.35
2019-04-02T10:41:40.856Z,14.36
2019-04-02T10:42:40.816Z,14.46
2019-04-02T10:43:40.815Z,14.53
2019-04-02T10:44:40.804Z,14.53
2019-04-02T10:45:40.795Z,14.64
2019-04-02T10:46:40.797Z,14.64
2019-04-02T10:47:40.766Z,14.67
2019-04-02T10:48:40.753Z,14.86
2019-04-02T10:49:40.745Z,14.93
2019-04-02T10:50:40.877Z,14.85
2019-04-02T10:51:40.739Z,14.91
2019-04-02T10:52:40.737Z,14.85
2019-04-02T10:53:40.727Z,14.90
2019-04-02T10:54:40.691Z,14.90
2019-04-02T10:55:40.674Z,14.94
2019-04-02T10:56:40.693Z,15.00
2019-04-02T10:57:40.652Z,15.04
2019-04-02T10:58:42.103Z,15.11
2019-04-02T10:59:40.625Z,15.09
2019-04-02T11:00:40.617Z,15.18
2019-04-02T11:01:40.626Z,15.25
2019-04-02T11:02:40.591Z,15.19
2019-04-02T11:03:40.585Z,15.25
2019-04-02T11:04:40.585Z,15.31
2019-04-02T11:05:40.593Z,15.38
2019-04-02T11:06:40.570Z,15.31
2019-04-02T11:07:40.536Z,15.37
2019-04-02T11:08:40.525Z,15.34
2019-04-02T11:09:40.518Z,15.43
2019-04-02T11:10:40.504Z,15.44
2019-04-02T11:11:40.509Z,15.43
2019-04-02T11:12:40.476Z,15.49
2019-04-02T11:13:40.467Z,15.46
2019-04-02T11:14:40.494Z,15.40
2019-04-02T11:15:40.499Z,15.51
2019-04-02T11:16:40.455Z,15.46
2019-04-02T11:17:40.435Z,15.41
2019-04-02T11:18:40.407Z,15.33
2019-04-02T11:19:40.403Z,15.33
2019-04-02T11:20:42.302Z,15.35
2019-04-02T11:21:40.397Z,15.33
2019-04-02T11:22:40.364Z,15.34
2019-04-02T11:23:40.356Z,15.38
2019-04-02T11:24:40.341Z,15.35
2019-04-02T11:25:40.331Z,15.34
2019-04-02T11:26:40.349Z,15.31
2019-04-02T11:27:40.303Z,15.30
2019-04-02T11:28:40.293Z,15.34
2019-04-02T11:29:40.302Z,15.31
2019-04-02T11:30:40.273Z,15.34
2019-04-02T11:31:40.283Z,15.37
2019-04-02T11:32:40.247Z,15.48
2019-04-02T11:33:40.240Z,15.43
2019-04-02T11:34:40.231Z,15.51
2019-04-02T11:35:40.220Z,15.44
2019-04-02T11:36:40.240Z,15.46
2019-04-02T11:37:40.190Z,15.40
2019-04-02T11:38:40.178Z,15.46
2019-04-02T11:39:40.168Z,15.51
2019-04-02T11:40:41.928Z,15.59
2019-04-02T11:41:40.169Z,15.67
2019-04-02T11:42:40.151Z,15.70
2019-04-02T11:43:40.122Z,15.70
2019-04-02T11:44:40.113Z,15.74
2019-04-02T11:45:40.099Z,15.81
2019-04-02T11:46:40.116Z,15.74
2019-04-02T11:47:40.077Z,15.76
2019-04-02T11:48:40.122Z,15.84
2019-04-02T11:49:40.055Z,15.76
2019-04-02T11:50:40.050Z,15.78
2019-04-02T11:51:40.056Z,15.76
2019-04-02T11:52:40.021Z,15.73
2019-04-02T11:53:41.193Z,15.73
2019-04-02T11:54:40.005Z,15.73
2019-04-02T11:55:39.988Z,15.70
2019-04-02T11:56:40.004Z,15.70
2019-04-02T11:57:41.346Z,15.68
2019-04-02T11:58:39.956Z,15.70
2019-04-02T11:59:39.942Z,15.70
2019-04-02T12:00:39.930Z,15.70
2019-04-02T12:01:39.950Z,15.66
2019-04-02T12:02:39.910Z,15.70
2019-04-02T12:03:39.897Z,15.66
2019-04-02T12:04:39.886Z,15.66
2019-04-02T12:05:39.873Z,15.66
2019-04-02T12:06:39.867Z,15.71
2019-04-02T12:07:41.666Z,15.74
2019-04-02T12:08:39.842Z,15.81
2019-04-02T12:09:45.319Z,15.77
2019-04-02T12:10:40.816Z,15.85
2019-04-02T12:11:39.807Z,15.80
2019-04-02T12:12:39.818Z,15.89
2019-04-02T12:13:39.824Z,15.96
2019-04-02T12:14:39.773Z,16.13
2019-04-02T12:15:49.115Z,16.25
2019-04-02T12:16:40.752Z,16.29
2019-04-02T12:17:39.761Z,16.32
2019-04-02T12:18:39.726Z,16.42
2019-04-02T12:19:39.723Z,16.37
2019-04-02T12:20:39.705Z,16.36
2019-04-02T12:21:41.446Z,16.37
2019-04-02T12:22:41.108Z,16.40
2019-04-02T12:23:40.486Z,16.36
2019-04-02T12:24:40.427Z,16.42
2019-04-02T12:25:40.173Z,16.41
2019-04-02T12:26:39.638Z,16.52
2019-04-02T12:27:39.650Z,16.57
2019-04-02T12:28:39.616Z,16.57
2019-04-02T12:29:39.603Z,16.50
2019-04-02T12:30:39.842Z,16.54
2019-04-02T12:31:39.580Z,16.52
2019-04-02T12:32:40.136Z,16.59
2019-04-02T12:33:39.569Z,16.62
2019-04-02T12:34:39.547Z,16.57
2019-04-02T12:35:39.543Z,16.62
2019-04-02T12:36:41.591Z,16.67
2019-04-02T12:37:40.361Z,16.55
2019-04-02T12:38:41.426Z,16.63
2019-04-02T12:39:41.470Z,16.57
2019-04-02T12:40:40.401Z,16.54
2019-04-02T12:41:40.875Z,16.50
2019-04-02T12:42:43.875Z,16.51
2019-04-02T12:43:40.469Z,16.51
2019-04-02T12:44:39.438Z,16.55
2019-04-02T12:45:39.432Z,16.54
2019-04-02T12:46:39.411Z,16.54
2019-04-02T12:47:39.401Z,16.45
2019-04-02T12:48:39.411Z,16.52
2019-04-02T12:49:39.377Z,16.41
2019-04-02T12:50:39.507Z,16.40
2019-04-02T12:51:40.205Z,16.40
2019-04-02T12:52:41.523Z,16.41
2019-04-02T12:53:39.356Z,16.42
2019-04-02T12:54:39.320Z,16.44
2019-04-02T12:55:39.310Z,16.37
2019-04-02T12:56:39.300Z,16.30
2019-04-02T12:57:39.289Z,16.36
2019-04-02T12:58:39.321Z,16.34
2019-04-02T12:59:39.264Z,16.32
2019-04-02T13:00:39.256Z,16.37
2019-04-02T13:01:39.242Z,16.40
2019-04-02T13:02:39.232Z,16.37
2019-04-02T13:03:39.257Z,16.40
2019-04-02T13:04:39.211Z,16.40
2019-04-02T13:05:39.224Z,16.27
2019-04-02T13:06:39.185Z,16.32
2019-04-02T13:07:39.174Z,16.29
2019-04-02T13:08:39.186Z,16.29